createdAt,value
2018-09-12T00:07:27.260Z,0
2018-09-12T00:17:41.480Z,0
2018-09-12T00:27:57.094Z,0
2018-09-12T00:38:11.974Z,0
2018-09-12T00:48:27.583Z,0
2018-09-12T00:58:42.290Z,0
2018-09-12T01:08:56.398Z,0
2018-09-12T01:19:10.310Z,0
2018-09-12T01:29:25.706Z,0
2018-09-12T01:39:40.409Z,0
2018-09-12T01:49:54.953Z,0
2018-09-12T02:00:09.643Z,0
2018-09-12T02:10:24.283Z,0
2018-09-12T02:20:39.945Z,0
2018-09-12T02:30:55.144Z,0
2018-09-12T02:41:10.469Z,0
2018-09-12T02:51:25.790Z,0
2018-09-12T03:01:39.579Z,0
2018-09-12T03:11:55.141Z,0
2018-09-12T03:22:09.286Z,0
2018-09-12T03:32:23.884Z,0
2018-09-12T03:42:38.363Z,0
2018-09-12T03:52:53.689Z,0
2018-09-12T04:03:07.944Z,0
2018-09-12T04:13:23.021Z,0
2018-09-12T04:23:38.230Z,0
2018-09-12T04:33:52.543Z,12
2018-09-12T04:44:06.249Z,52
2018-09-12T04:54:21.421Z,200
2018-09-12T05:04:35.328Z,364
2018-09-12T05:14:49.152Z,724
2018-09-12T05:25:03.286Z,1096
2018-09-12T05:35:18.512Z,1904
2018-09-12T05:45:33.020Z,2756
2018-09-12T05:55:47.680Z,3340
2018-09-12T06:06:02.506Z,4868
2018-09-12T06:16:16.838Z,6948
2018-09-12T06:26:30.559Z,4484
2018-09-12T06:36:46.190Z,3728
2018-09-12T06:47:00.226Z,6252
2018-09-12T06:57:14.050Z,8612
2018-09-12T07:07:29.045Z,7676
2018-09-12T07:17:44.182Z,16792
2018-09-12T07:27:58.559Z,13508
2018-09-12T07:38:13.154Z,18208
2018-09-12T07:48:27.122Z,18752
2018-09-12T07:58:42.648Z,20032
2018-09-12T08:08:56.678Z,24992
2018-09-12T08:19:10.731Z,16840
2018-09-12T08:29:25.927Z,38464
2018-09-12T08:39:41.633Z,23168
2018-09-12T08:49:56.897Z,28576
2018-09-12T09:00:12.552Z,23808
2018-09-12T09:10:27.543Z,25280
2018-09-12T09:20:43.184Z,17132
2018-09-12T09:30:57.390Z,22016
2018-09-12T09:41:12.351Z,22080
2018-09-12T09:51:28.210Z,28960
2018-09-12T10:01:42.422Z,32832
2018-09-12T10:11:57.826Z,33088
2018-09-12T10:22:12.843Z,34656
2018-09-12T10:32:27.677Z,8912
2018-09-12T10:42:42.596Z,12068
2018-09-12T10:52:56.374Z,17408
2018-09-12T11:03:11.546Z,26336
2018-09-12T11:13:27.768Z,19968
2018-09-12T11:23:41.054Z,22784
2018-09-12T11:33:55.816Z,44384
2018-09-12T11:44:10.797Z,33088
2018-09-12T11:54:24.793Z,10512
2018-09-12T12:04:40.085Z,12244
2018-09-12T12:14:54.542Z,14792
2018-09-12T12:25:08.386Z,13140
2018-09-12T12:35:22.470Z,9988
2018-09-12T12:45:37.501Z,8076
2018-09-12T12:55:52.419Z,6324
2018-09-12T13:06:08.004Z,7928
2018-09-12T13:16:22.276Z,11808
2018-09-12T13:26:37.896Z,9508
2018-09-12T13:36:51.974Z,13392
2018-09-12T13:47:06.965Z,9536
2018-09-12T13:57:21.127Z,7612
2018-09-12T14:07:35.698Z,9144
2018-09-12T14:17:49.578Z,13724
2018-09-12T14:28:04.369Z,12324
2018-09-12T14:38:18.203Z,7476
2018-09-12T14:48:32.293Z,18208
2018-09-12T14:58:48.047Z,10560
2018-09-12T15:09:03.036Z,13100
2018-09-12T15:19:17.323Z,12640
2018-09-12T15:29:32.376Z,7560
2018-09-12T15:39:46.973Z,7024
2018-09-12T15:50:02.076Z,11252
2018-09-12T16:00:15.910Z,10460
2018-09-12T16:10:29.944Z,5976
2018-09-12T16:20:45.463Z,4004
2018-09-12T16:30:59.312Z,3220
2018-09-12T16:41:14.531Z,2124
2018-09-12T16:51:30.073Z,2180
2018-09-12T17:01:45.669Z,1084
2018-09-12T17:12:01.346Z,448
2018-09-12T17:22:16.950Z,564
2018-09-12T17:32:31.950Z,404
2018-09-12T17:42:47.350Z,248
2018-09-12T17:53:02.969Z,128
2018-09-12T18:03:18.527Z,32
2018-09-12T18:13:33.047Z,4
2018-09-12T18:23:47.324Z,0
2018-09-12T18:34:03.054Z,0
2018-09-12T18:44:18.385Z,0
2018-09-12T18:54:33.093Z,0
2018-09-12T19:04:47.585Z,0
2018-09-12T19:15:01.707Z,0
2018-09-12T19:25:16.729Z,0
2018-09-12T19:35:30.493Z,0
2018-09-12T19:45:44.751Z,0
2018-09-12T19:56:00.092Z,0
2018-09-12T20:06:15.276Z,0
2018-09-12T20:16:30.435Z,0
2018-09-12T20:26:44.852Z,0
2018-09-12T20:36:59.160Z,0
2018-09-12T20:47:13.009Z,0
2018-09-12T20:57:28.707Z,0
2018-09-12T21:07:44.246Z,0
2018-09-12T21:17:58.397Z,0
2018-09-12T21:28:13.115Z,0
2018-09-12T21:38:28.732Z,0
2018-09-12T21:48:43.893Z,0
2018-09-12T21:58:58.753Z,0
2018-09-12T22:09:13.303Z,0
2018-09-12T22:19:27.222Z,0
2018-09-12T22:29:42.082Z,0
2018-09-12T22:39:55.892Z,0
2018-09-12T22:50:11.812Z,0
2018-09-12T23:00:26.810Z,0
2018-09-12T23:10:42.418Z,0
2018-09-12T23:20:56.285Z,0
2018-09-12T23:31:10.619Z,0
2018-09-12T23:41:24.271Z,0
2018-09-12T23:51:39.581Z,0
